sensor_id;sensor_type;location;lat;lon;timestamp;pressure;altitude;pressure_sealevel;temperature;humidity
75627;BME280;67372;49.404;11.034;2023-02-08T00:01:58;100275.25;;;-5.30;71.84
75627;BME280;67372;49.404;11.034;2023-02-08T00:04:24;100274.47;;;-5.32;73.05
75627;BME280;67372;49.404;11.034;2023-02-08T00:06:51;100279.66;;;-5.32;72.60
75627;BME280;67372;49.404;11.034;2023-02-08T00:09:17;100282.34;;;-5.34;72.39
75627;BME280;67372;49.404;11.034;2023-02-08T00:11:43;100270.19;;;-5.33;71.91
75627;BME280;67372;49.404;11.034;2023-02-08T00:14:10;100265.75;;;-5.31;71.29
75627;BME280;67372;49.404;11.034;2023-02-08T00:16:36;100264.00;;;-5.31;71.76
75627;BME280;67372;49.404;11.034;2023-02-08T00:19:02;100267.56;;;-5.33;71.74
75627;BME280;67372;49.404;11.034;2023-02-08T00:21:29;100260.81;;;-5.37;72.87
75627;BME280;67372;49.404;11.034;2023-02-08T00:23:55;100261.13;;;-5.45;73.97
75627;BME280;67372;49.404;11.034;2023-02-08T00:26:22;100250.22;;;-5.53;73.16
75627;BME280;67372;49.404;11.034;2023-02-08T00:28:48;100257.31;;;-5.57;73.52
75627;BME280;67372;49.404;11.034;2023-02-08T00:31:14;100259.13;;;-5.59;73.78
75627;BME280;67372;49.404;11.034;2023-02-08T00:33:41;100270.50;;;-5.61;73.48
75627;BME280;67372;49.404;11.034;2023-02-08T00:36:08;100273.88;;;-5.59;73.40
75627;BME280;67372;49.404;11.034;2023-02-08T00:38:35;100271.28;;;-5.59;73.55
75627;BME280;67372;49.404;11.034;2023-02-08T00:41:02;100275.50;;;-5.57;73.33
75627;BME280;67372;49.404;11.034;2023-02-08T00:43:29;100271.13;;;-5.56;72.65
75627;BME280;67372;49.404;11.034;2023-02-08T00:45:57;100268.75;;;-5.61;72.33
75627;BME280;67372;49.404;11.034;2023-02-08T00:48:24;100272.31;;;-5.63;73.53
75627;BME280;67372;49.404;11.034;2023-02-08T00:51:05;100276.66;;;-5.64;72.94
75627;BME280;67372;49.404;11.034;2023-02-08T00:53:37;100268.19;;;-5.69;76.61
75627;BME280;67372;49.404;11.034;2023-02-08T00:56:05;100277.88;;;-5.72;75.40
75627;BME280;67372;49.404;11.034;2023-02-08T00:58:32;100284.03;;;-5.75;73.88
75627;BME280;67372;49.404;11.034;2023-02-08T01:00:58;100290.00;;;-5.73;73.08
75627;BME280;67372;49.404;11.034;2023-02-08T01:03:25;100291.56;;;-5.69;73.44
75627;BME280;67372;49.404;11.034;2023-02-08T01:05:52;100286.34;;;-5.67;72.58
75627;BME280;67372;49.404;11.034;2023-02-08T01:08:19;100283.75;;;-5.67;73.03
75627;BME280;67372;49.404;11.034;2023-02-08T01:10:46;100282.03;;;-5.68;72.67
75627;BME280;67372;49.404;11.034;2023-02-08T01:13:12;100288.13;;;-5.69;73.47
75627;BME280;67372;49.404;11.034;2023-02-08T01:15:39;100282.28;;;-5.74;72.96
75627;BME280;67372;49.404;11.034;2023-02-08T01:18:05;100280.66;;;-5.77;72.68
75627;BME280;67372;49.404;11.034;2023-02-08T01:20:33;100277.41;;;-5.82;73.27
75627;BME280;67372;49.404;11.034;2023-02-08T01:23:00;100276.75;;;-5.87;73.28
75627;BME280;67372;49.404;11.034;2023-02-08T01:25:27;100275.22;;;-5.91;74.07
75627;BME280;67372;49.404;11.034;2023-02-08T01:27:53;100275.25;;;-5.93;74.19
75627;BME280;67372;49.404;11.034;2023-02-08T01:30:20;100274.41;;;-5.93;74.13
75627;BME280;67372;49.404;11.034;2023-02-08T01:32:46;100272.72;;;-5.94;74.85
75627;BME280;67372;49.404;11.034;2023-02-08T01:35:13;100272.84;;;-5.97;74.13
75627;BME280;67372;49.404;11.034;2023-02-08T01:37:39;100273.03;;;-6.02;74.06
75627;BME280;67372;49.404;11.034;2023-02-08T01:40:06;100281.72;;;-6.03;73.45
75627;BME280;67372;49.404;11.034;2023-02-08T01:42:32;100276.53;;;-6.03;73.97
75627;BME280;67372;49.404;11.034;2023-02-08T01:47:42;100274.72;;;-6.01;75.45
75627;BME280;67372;49.404;11.034;2023-02-08T01:50:10;100274.72;;;-6.01;73.66
75627;BME280;67372;49.404;11.034;2023-02-08T01:52:37;100275.56;;;-6.00;73.59
75627;BME280;67372;49.404;11.034;2023-02-08T01:55:12;100272.19;;;-6.02;74.08
75627;BME280;67372;49.404;11.034;2023-02-08T01:57:41;100273.16;;;-6.05;72.81
75627;BME280;67372;49.404;11.034;2023-02-08T02:00:15;100269.78;;;-6.07;74.11
75627;BME280;67372;49.404;11.034;2023-02-08T02:02:44;100268.16;;;-6.09;73.79
75627;BME280;67372;49.404;11.034;2023-02-08T02:05:11;100270.13;;;-6.16;74.63
75627;BME280;67372;49.404;11.034;2023-02-08T02:07:39;100276.47;;;-6.23;74.72
75627;BME280;67372;49.404;11.034;2023-02-08T02:10:21;100275.09;;;-6.32;75.00
75627;BME280;67372;49.404;11.034;2023-02-08T02:12:50;100269.88;;;-6.32;73.96
75627;BME280;67372;49.404;11.034;2023-02-08T02:15:17;100280.28;;;-6.32;74.49
75627;BME280;67372;49.404;11.034;2023-02-08T02:17:43;100267.22;;;-6.30;74.89
75627;BME280;67372;49.404;11.034;2023-02-08T02:20:28;100273.34;;;-6.31;74.18
75627;BME280;67372;49.404;11.034;2023-02-08T02:23:28;100264.88;;;-6.36;76.07
75627;BME280;67372;49.404;11.034;2023-02-08T02:35:02;100270.53;;;-6.48;75.07
75627;BME280;67372;49.404;11.034;2023-02-08T02:40:56;100280.25;;;-6.54;74.93
75627;BME280;67372;49.404;11.034;2023-02-08T02:43:33;100273.25;;;-6.52;74.50
75627;BME280;67372;49.404;11.034;2023-02-08T02:46:26;100269.56;;;-6.46;74.48
75627;BME280;67372;49.404;11.034;2023-02-08T02:51:53;100276.56;;;-6.48;74.93
75627;BME280;67372;49.404;11.034;2023-02-08T02:54:26;100271.38;;;-6.48;74.52
75627;BME280;67372;49.404;11.034;2023-02-08T02:56:58;100280.97;;;-6.50;75.08
75627;BME280;67372;49.404;11.034;2023-02-08T02:59:26;100277.53;;;-6.51;74.40
75627;BME280;67372;49.404;11.034;2023-02-08T03:01:54;100265.38;;;-6.50;74.91
75627;BME280;67372;49.404;11.034;2023-02-08T03:13:03;100260.50;;;-6.58;74.98
75627;BME280;67372;49.404;11.034;2023-02-08T03:15:42;100260.69;;;-6.62;74.49
75627;BME280;67372;49.404;11.034;2023-02-08T03:23:20;100259.31;;;-6.72;74.13
75627;BME280;67372;49.404;11.034;2023-02-08T03:26:10;100259.06;;;-6.66;74.21
75627;BME280;67372;49.404;11.034;2023-02-08T03:29:08;100265.09;;;-6.66;74.20
75627;BME280;67372;49.404;11.034;2023-02-08T03:31:42;100262.50;;;-6.66;73.43
75627;BME280;67372;49.404;11.034;2023-02-08T03:34:42;100264.31;;;-6.68;73.71
75627;BME280;67372;49.404;11.034;2023-02-08T03:37:20;100267.75;;;-6.67;74.01
75627;BME280;67372;49.404;11.034;2023-02-08T03:39:51;100262.63;;;-6.69;74.07
75627;BME280;67372;49.404;11.034;2023-02-08T03:42:23;100269.63;;;-6.71;75.23
75627;BME280;67372;49.404;11.034;2023-02-08T03:44:55;100263.03;;;-6.79;74.12
75627;BME280;67372;49.404;11.034;2023-02-08T03:47:25;100265.81;;;-6.84;74.31
75627;BME280;67372;49.404;11.034;2023-02-08T03:49:57;100267.59;;;-6.86;74.41
75627;BME280;67372;49.404;11.034;2023-02-08T03:52:25;100270.19;;;-6.86;74.99
75627;BME280;67372;49.404;11.034;2023-02-08T03:57:30;100262.63;;;-6.92;73.94
75627;BME280;67372;49.404;11.034;2023-02-08T04:00:02;100256.59;;;-6.93;73.75
75627;BME280;67372;49.404;11.034;2023-02-08T04:02:32;100259.34;;;-6.97;74.32
75627;BME280;67372;49.404;11.034;2023-02-08T04:05:00;100255.91;;;-6.98;73.31
75627;BME280;67372;49.404;11.034;2023-02-08T04:07:27;100261.06;;;-6.96;73.81
75627;BME280;67372;49.404;11.034;2023-02-08T04:09:53;100253.50;;;-7.02;73.82
75627;BME280;67372;49.404;11.034;2023-02-08T04:12:20;100256.25;;;-7.07;73.66
75627;BME280;67372;49.404;11.034;2023-02-08T04:14:46;100258.16;;;-7.12;74.57
75627;BME280;67372;49.404;11.034;2023-02-08T04:17:13;100262.72;;;-7.19;74.81
75627;BME280;67372;49.404;11.034;2023-02-08T04:19:39;100259.38;;;-7.22;74.83
75627;BME280;67372;49.404;11.034;2023-02-08T04:22:06;100261.06;;;-7.21;74.37
75627;BME280;67372;49.404;11.034;2023-02-08T04:24:32;100262.66;;;-7.17;74.23
75627;BME280;67372;49.404;11.034;2023-02-08T04:26:58;100257.47;;;-7.17;74.33
75627;BME280;67372;49.404;11.034;2023-02-08T04:29:25;100258.38;;;-7.18;74.40
75627;BME280;67372;49.404;11.034;2023-02-08T04:31:51;100254.16;;;-7.21;74.67
75627;BME280;67372;49.404;11.034;2023-02-08T04:34:17;100256.75;;;-7.21;73.86
75627;BME280;67372;49.404;11.034;2023-02-08T04:36:44;100260.28;;;-7.23;74.99
75627;BME280;67372;49.404;11.034;2023-02-08T04:39:10;100259.72;;;-7.31;74.73
75627;BME280;67372;49.404;11.034;2023-02-08T04:41:36;100253.78;;;-7.35;74.40
75627;BME280;67372;49.404;11.034;2023-02-08T04:44:03;100254.53;;;-7.31;74.85
75627;BME280;67372;49.404;11.034;2023-02-08T04:46:29;100255.38;;;-7.31;73.50
75627;BME280;67372;49.404;11.034;2023-02-08T04:48:55;100262.38;;;-7.34;74.90
75627;BME280;67372;49.404;11.034;2023-02-08T04:51:24;100262.31;;;-7.31;74.69
75627;BME280;67372;49.404;11.034;2023-02-08T04:53:50;100263.16;;;-7.31;74.60
75627;BME280;67372;49.404;11.034;2023-02-08T04:56:16;100261.47;;;-7.32;73.99
75627;BME280;67372;49.404;11.034;2023-02-08T04:58:43;100255.47;;;-7.34;73.84
75627;BME280;67372;49.404;11.034;2023-02-08T05:01:09;100255.47;;;-7.34;74.19
75627;BME280;67372;49.404;11.034;2023-02-08T05:03:36;100256.34;;;-7.35;74.41
75627;BME280;67372;49.404;11.034;2023-02-08T05:06:02;100259.97;;;-7.39;74.56
75627;BME280;67372;49.404;11.034;2023-02-08T05:08:29;100257.47;;;-7.42;73.68
75627;BME280;67372;49.404;11.034;2023-02-08T05:10:55;100258.44;;;-7.45;73.65
75627;BME280;67372;49.404;11.034;2023-02-08T05:13:21;100256.75;;;-7.46;74.46
75627;BME280;67372;49.404;11.034;2023-02-08T05:15:48;100260.22;;;-7.47;73.51
75627;BME280;67372;49.404;11.034;2023-02-08T05:18:14;100256.84;;;-7.49;73.81
75627;BME280;67372;49.404;11.034;2023-02-08T05:20:41;100254.25;;;-7.49;74.02
75627;BME280;67372;49.404;11.034;2023-02-08T05:23:07;100253.53;;;-7.52;75.02
75627;BME280;67372;49.404;11.034;2023-02-08T05:25:34;100255.38;;;-7.56;73.74
75627;BME280;67372;49.404;11.034;2023-02-08T05:28:00;100256.28;;;-7.58;74.43
75627;BME280;67372;49.404;11.034;2023-02-08T05:30:26;100255.38;;;-7.56;74.68
75627;BME280;67372;49.404;11.034;2023-02-08T05:32:53;100256.22;;;-7.55;74.50
75627;BME280;67372;49.404;11.034;2023-02-08T05:35:19;100253.75;;;-7.60;74.39
75627;BME280;67372;49.404;11.034;2023-02-08T05:37:45;100258.88;;;-7.58;74.24
75627;BME280;67372;49.404;11.034;2023-02-08T05:40:12;100254.72;;;-7.62;73.67
75627;BME280;67372;49.404;11.034;2023-02-08T05:42:38;100260.75;;;-7.62;74.26
75627;BME280;67372;49.404;11.034;2023-02-08T05:45:05;100261.75;;;-7.66;74.36
75627;BME280;67372;49.404;11.034;2023-02-08T05:47:31;100257.50;;;-7.68;74.81
75627;BME280;67372;49.404;11.034;2023-02-08T05:49:58;100254.81;;;-7.65;73.98
75627;BME280;67372;49.404;11.034;2023-02-08T05:52:24;100253.75;;;-7.60;74.90
75627;BME280;67372;49.404;11.034;2023-02-08T05:54:50;100258.88;;;-7.57;74.04
75627;BME280;67372;49.404;11.034;2023-02-08T05:57:17;100259.72;;;-7.58;73.83
75627;BME280;67372;49.404;11.034;2023-02-08T05:59:43;100261.59;;;-7.61;74.53
75627;BME280;67372;49.404;11.034;2023-02-08T06:02:09;100259.16;;;-7.66;74.67
75627;BME280;67372;49.404;11.034;2023-02-08T06:04:36;100261.16;;;-7.74;75.94
75627;BME280;67372;49.404;11.034;2023-02-08T06:07:04;100270.78;;;-7.78;75.22
75627;BME280;67372;49.404;11.034;2023-02-08T06:09:30;100263.81;;;-7.76;74.60
75627;BME280;67372;49.404;11.034;2023-02-08T06:11:57;100262.84;;;-7.73;74.93
75627;BME280;67372;49.404;11.034;2023-02-08T06:14:23;100262.69;;;-7.68;74.12
75627;BME280;67372;49.404;11.034;2023-02-08T06:16:49;100259.16;;;-7.66;74.96
75627;BME280;67372;49.404;11.034;2023-02-08T06:19:16;100266.13;;;-7.68;75.56
75627;BME280;67372;49.404;11.034;2023-02-08T06:21:42;100269.56;;;-7.67;74.98
75627;BME280;67372;49.404;11.034;2023-02-08T06:24:09;100270.47;;;-7.68;74.48
75627;BME280;67372;49.404;11.034;2023-02-08T06:26:35;100275.66;;;-7.68;74.33
75627;BME280;67372;49.404;11.034;2023-02-08T06:29:02;100277.34;;;-7.67;74.09
75627;BME280;67372;49.404;11.034;2023-02-08T06:31:28;100281.66;;;-7.68;75.19
75627;BME280;67372;49.404;11.034;2023-02-08T06:33:55;100286.97;;;-7.71;74.65
75627;BME280;67372;49.404;11.034;2023-02-08T06:36:21;100278.13;;;-7.65;74.81
75627;BME280;67372;49.404;11.034;2023-02-08T06:38:48;100285.56;;;-7.55;74.20
75627;BME280;67372;49.404;11.034;2023-02-08T06:41:16;100286.19;;;-7.48;75.64
75627;BME280;67372;49.404;11.034;2023-02-08T06:43:42;100295.66;;;-7.47;74.68
75627;BME280;67372;49.404;11.034;2023-02-08T06:46:09;100284.25;;;-7.42;74.28
75627;BME280;67372;49.404;11.034;2023-02-08T06:48:36;100290.94;;;-7.36;74.48
75627;BME280;67372;49.404;11.034;2023-02-08T06:51:02;100283.09;;;-7.33;74.10
75627;BME280;67372;49.404;11.034;2023-02-08T06:53:29;100283.00;;;-7.30;74.32
75627;BME280;67372;49.404;11.034;2023-02-08T06:55:55;100283.63;;;-7.23;74.42
75627;BME280;67372;49.404;11.034;2023-02-08T06:58:21;100280.84;;;-7.19;74.47
75627;BME280;67372;49.404;11.034;2023-02-08T07:00:48;100278.09;;;-7.14;73.51
75627;BME280;67372;49.404;11.034;2023-02-08T07:03:14;100281.47;;;-7.12;73.55
75627;BME280;67372;49.404;11.034;2023-02-08T07:05:41;100283.22;;;-7.13;74.00
75627;BME280;67372;49.404;11.034;2023-02-08T07:08:20;100284.03;;;-7.11;73.79
75627;BME280;67372;49.404;11.034;2023-02-08T07:10:47;100279.59;;;-7.07;74.47
75627;BME280;67372;49.404;11.034;2023-02-08T07:13:13;100277.69;;;-7.02;74.24
75627;BME280;67372;49.404;11.034;2023-02-08T07:15:39;100282.66;;;-6.96;74.28
75627;BME280;67372;49.404;11.034;2023-02-08T07:18:07;100285.13;;;-6.93;74.07
75627;BME280;67372;49.404;11.034;2023-02-08T07:20:34;100282.41;;;-6.90;73.48
75627;BME280;67372;49.404;11.034;2023-02-08T07:23:00;100286.38;;;-6.79;73.73
75627;BME280;67372;49.404;11.034;2023-02-08T07:25:26;100289.47;;;-6.70;73.46
75627;BME280;67372;49.404;11.034;2023-02-08T07:27:53;100290.91;;;-6.61;73.02
75627;BME280;67372;49.404;11.034;2023-02-08T07:30:19;100298.28;;;-6.51;73.37
75627;BME280;67372;49.404;11.034;2023-02-08T07:32:46;100301.22;;;-6.36;73.05
75627;BME280;67372;49.404;11.034;2023-02-08T07:35:12;100299.91;;;-6.25;73.28
75627;BME280;67372;49.404;11.034;2023-02-08T07:37:38;100294.47;;;-6.19;73.49
75627;BME280;67372;49.404;11.034;2023-02-08T07:40:05;100301.91;;;-6.09;73.23
75627;BME280;67372;49.404;11.034;2023-02-08T07:42:32;100295.38;;;-5.98;72.63
75627;BME280;67372;49.404;11.034;2023-02-08T07:44:58;100293.25;;;-5.88;80.50
75627;BME280;67372;49.404;11.034;2023-02-08T07:47:24;100300.59;;;-5.77;81.08
75627;BME280;67372;49.404;11.034;2023-02-08T07:49:51;100296.88;;;-5.50;85.93
75627;BME280;67372;49.404;11.034;2023-02-08T07:52:17;100292.81;;;-5.35;76.59
75627;BME280;67372;49.404;11.034;2023-02-08T07:54:43;100296.91;;;-5.30;75.18
75627;BME280;67372;49.404;11.034;2023-02-08T07:57:10;100294.03;;;-5.23;74.84
75627;BME280;67372;49.404;11.034;2023-02-08T07:59:36;100294.50;;;-5.14;73.17
75627;BME280;67372;49.404;11.034;2023-02-08T08:02:02;100294.16;;;-5.06;73.64
75627;BME280;67372;49.404;11.034;2023-02-08T08:04:29;100289.47;;;-4.98;73.35
75627;BME280;67372;49.404;11.034;2023-02-08T08:06:55;100287.25;;;-4.87;73.08
75627;BME280;67372;49.404;11.034;2023-02-08T08:09:22;100285.00;;;-4.76;73.03
75627;BME280;67372;49.404;11.034;2023-02-08T08:11:48;100287.06;;;-4.64;73.27
75627;BME280;67372;49.404;11.034;2023-02-08T08:14:14;100289.09;;;-4.51;72.85
75627;BME280;67372;49.404;11.034;2023-02-08T08:16:41;100284.28;;;-4.40;72.07
75627;BME280;67372;49.404;11.034;2023-02-08T08:19:07;100288.97;;;-4.29;72.68
75627;BME280;67372;49.404;11.034;2023-02-08T08:21:34;100273.72;;;-4.18;71.94
75627;BME280;67372;49.404;11.034;2023-02-08T08:24:00;100280.16;;;-4.08;71.04
75627;BME280;67372;49.404;11.034;2023-02-08T08:26:26;100275.31;;;-3.97;72.00
75627;BME280;67372;49.404;11.034;2023-02-08T08:28:53;100274.63;;;-3.83;71.76
75627;BME280;67372;49.404;11.034;2023-02-08T08:31:20;100270.59;;;-3.72;70.66
75627;BME280;67372;49.404;11.034;2023-02-08T08:33:47;100270.75;;;-3.57;70.45
75627;BME280;67372;49.404;11.034;2023-02-08T08:36:14;100270.91;;;-3.43;69.79
75627;BME280;67372;49.404;11.034;2023-02-08T08:38:40;100273.88;;;-3.33;69.65
75627;BME280;67372;49.404;11.034;2023-02-08T08:41:13;100272.53;;;-3.23;69.77
75627;BME280;67372;49.404;11.034;2023-02-08T08:43:40;100266.75;;;-3.13;69.62
75627;BME280;67372;49.404;11.034;2023-02-08T08:46:06;100267.06;;;-3.01;66.65
75627;BME280;67372;49.404;11.034;2023-02-08T08:48:34;100262.94;;;-2.90;68.21
75627;BME280;67372;49.404;11.034;2023-02-08T08:51:01;100262.41;;;-2.79;67.23
75627;BME280;67372;49.404;11.034;2023-02-08T08:53:28;100258.53;;;-2.72;66.92
75627;BME280;67372;49.404;11.034;2023-02-08T08:55:54;100265.72;;;-2.60;67.90
75627;BME280;67372;49.404;11.034;2023-02-08T08:58:21;100248.44;;;-2.47;67.58
75627;BME280;67372;49.404;11.034;2023-02-08T09:00:47;100255.63;;;-2.34;67.92
75627;BME280;67372;49.404;11.034;2023-02-08T09:03:13;100240.38;;;-2.26;66.48
75627;BME280;67372;49.404;11.034;2023-02-08T09:05:40;100239.09;;;-2.19;66.02
75627;BME280;67372;49.404;11.034;2023-02-08T09:08:07;100244.50;;;-2.06;64.51
75627;BME280;67372;49.404;11.034;2023-02-08T09:10:33;100243.97;;;-1.97;65.50
75627;BME280;67372;49.404;11.034;2023-02-08T09:12:59;100250.63;;;-1.92;63.14
75627;BME280;67372;49.404;11.034;2023-02-08T09:15:26;100237.53;;;-1.92;62.49
75627;BME280;67372;49.404;11.034;2023-02-08T09:17:52;100246.47;;;-1.80;63.59
75627;BME280;67372;49.404;11.034;2023-02-08T09:20:18;100243.31;;;-1.71;63.89
75627;BME280;67372;49.404;11.034;2023-02-08T09:22:45;100241.22;;;-1.64;65.07
75627;BME280;67372;49.404;11.034;2023-02-08T09:25:11;100250.88;;;-1.50;65.54
75627;BME280;67372;49.404;11.034;2023-02-08T09:27:38;100250.06;;;-1.37;65.69
75627;BME280;67372;49.404;11.034;2023-02-08T09:30:05;100254.56;;;-1.25;64.15
75627;BME280;67372;49.404;11.034;2023-02-08T09:32:32;100261.06;;;-1.16;65.18
75627;BME280;67372;49.404;11.034;2023-02-08T09:34:59;100265.19;;;-1.12;61.58
75627;BME280;67372;49.404;11.034;2023-02-08T09:37:26;100259.38;;;-1.03;62.67
75627;BME280;67372;49.404;11.034;2023-02-08T09:39:52;100255.38;;;-0.94;63.51
75627;BME280;67372;49.404;11.034;2023-02-08T09:45:11;100247.63;;;-0.81;61.94
75627;BME280;67372;49.404;11.034;2023-02-08T09:48:03;100243.22;;;-0.67;61.49
75627;BME280;67372;49.404;11.034;2023-02-08T09:50:39;100250.22;;;-0.53;63.35
75627;BME280;67372;49.404;11.034;2023-02-08T09:53:14;100244.69;;;-0.48;56.80
75627;BME280;67372;49.404;11.034;2023-02-08T09:55:46;100240.03;;;-0.43;57.22
75627;BME280;67372;49.404;11.034;2023-02-08T09:58:21;100238.03;;;-0.40;55.29
75627;BME280;67372;49.404;11.034;2023-02-08T10:00:50;100236.25;;;-0.39;55.32
75627;BME280;67372;49.404;11.034;2023-02-08T10:03:39;100227.84;;;-0.44;55.16
75627;BME280;67372;49.404;11.034;2023-02-08T10:06:09;100229.25;;;-0.39;55.90
75627;BME280;67372;49.404;11.034;2023-02-08T10:08:36;100227.81;;;-0.30;55.58
75627;BME280;67372;49.404;11.034;2023-02-08T10:33:17;100205.53;;;0.69;51.99
75627;BME280;67372;49.404;11.034;2023-02-08T10:35:47;100207.44;;;0.80;53.00
75627;BME280;67372;49.404;11.034;2023-02-08T10:40:45;100202.19;;;1.05;53.76
75627;BME280;67372;49.404;11.034;2023-02-08T10:51:02;100184.56;;;1.44;51.54
75627;BME280;67372;49.404;11.034;2023-02-08T10:53:28;100183.63;;;1.45;48.33
75627;BME280;67372;49.404;11.034;2023-02-08T10:55:55;100179.81;;;1.49;48.56
75627;BME280;67372;49.404;11.034;2023-02-08T10:58:23;100160.84;;;1.57;49.48
75627;BME280;67372;49.404;11.034;2023-02-08T11:00:50;100153.34;;;1.63;47.89
75627;BME280;67372;49.404;11.034;2023-02-08T11:05:43;100159.91;;;1.81;47.46
75627;BME280;67372;49.404;11.034;2023-02-08T11:08:15;100158.00;;;1.83;47.43
75627;BME280;67372;49.404;11.034;2023-02-08T11:10:45;100156.72;;;1.89;47.62
75627;BME280;67372;49.404;11.034;2023-02-08T11:13:20;100149.22;;;1.96;48.35
75627;BME280;67372;49.404;11.034;2023-02-08T11:15:51;100146.47;;;1.97;46.92
75627;BME280;67372;49.404;11.034;2023-02-08T11:18:25;100145.91;;;2.05;47.19
75627;BME280;67372;49.404;11.034;2023-02-08T11:20:55;100150.69;;;2.11;47.15
75627;BME280;67372;49.404;11.034;2023-02-08T11:23:35;100137.44;;;2.12;46.69
75627;BME280;67372;49.404;11.034;2023-02-08T11:26:15;100136.53;;;2.25;45.82
75627;BME280;67372;49.404;11.034;2023-02-08T11:28:42;100130.91;;;2.29;46.50
75627;BME280;67372;49.404;11.034;2023-02-08T11:31:19;100132.22;;;2.35;46.72
75627;BME280;67372;49.404;11.034;2023-02-08T11:34:11;100125.56;;;2.42;46.04
75627;BME280;67372;49.404;11.034;2023-02-08T11:36:45;100116.47;;;2.57;48.13
75627;BME280;67372;49.404;11.034;2023-02-08T11:39:23;100119.97;;;2.69;46.76
75627;BME280;67372;49.404;11.034;2023-02-08T11:41:54;100117.94;;;2.72;45.66
75627;BME280;67372;49.404;11.034;2023-02-08T11:44:31;100109.91;;;2.74;45.48
75627;BME280;67372;49.404;11.034;2023-02-08T11:47:00;100112.31;;;2.88;47.38
75627;BME280;67372;49.404;11.034;2023-02-08T11:49:41;100100.09;;;2.87;45.60
75627;BME280;67372;49.404;11.034;2023-02-08T11:52:28;100100.44;;;2.94;45.43
75627;BME280;67372;49.404;11.034;2023-02-08T11:55:31;100101.53;;;2.91;45.26
75627;BME280;67372;49.404;11.034;2023-02-08T11:58:18;100099.03;;;2.90;44.59
75627;BME280;67372;49.404;11.034;2023-02-08T12:01:04;100097.22;;;2.79;45.07
75627;BME280;67372;49.404;11.034;2023-02-08T12:03:38;100095.91;;;2.85;45.71
75627;BME280;67372;49.404;11.034;2023-02-08T12:06:18;100088.69;;;2.98;46.11
75627;BME280;67372;49.404;11.034;2023-02-08T12:08:58;100085.25;;;2.86;44.10
75627;BME280;67372;49.404;11.034;2023-02-08T12:16:50;100072.28;;;2.94;43.57
75627;BME280;67372;49.404;11.034;2023-02-08T12:19:47;100073.84;;;2.97;44.52
75627;BME280;67372;49.404;11.034;2023-02-08T12:22:27;100050.97;;;2.97;44.85
75627;BME280;67372;49.404;11.034;2023-02-08T12:30:33;100048.06;;;3.12;45.05
75627;BME280;67372;49.404;11.034;2023-02-08T12:39:04;100025.00;;;3.36;42.54
75627;BME280;67372;49.404;11.034;2023-02-08T12:49:54;100005.13;;;3.53;44.08
75627;BME280;67372;49.404;11.034;2023-02-08T12:52:59;100006.91;;;3.63;42.01
75627;BME280;67372;49.404;11.034;2023-02-08T12:55:33;100005.59;;;3.58;41.22
75627;BME280;67372;49.404;11.034;2023-02-08T12:58:21;100006.50;;;3.68;42.08
75627;BME280;67372;49.404;11.034;2023-02-08T13:00:50;100002.44;;;3.64;42.08
75627;BME280;67372;49.404;11.034;2023-02-08T13:06:15;99999.44;;;3.68;42.33
75627;BME280;67372;49.404;11.034;2023-02-08T13:08:52;99998.41;;;3.60;41.46
75627;BME280;67372;49.404;11.034;2023-02-08T13:11:36;100005.59;;;3.58;41.02
75627;BME280;67372;49.404;11.034;2023-02-08T13:16:44;100000.78;;;3.63;41.27
75627;BME280;67372;49.404;11.034;2023-02-08T13:19:22;99991.31;;;3.60;40.93
75627;BME280;67372;49.404;11.034;2023-02-08T13:21:51;99982.75;;;3.47;40.52
75627;BME280;67372;49.404;11.034;2023-02-08T13:24:40;99984.16;;;3.51;41.71
75627;BME280;67372;49.404;11.034;2023-02-08T13:27:14;99993.50;;;3.55;41.79
75627;BME280;67372;49.404;11.034;2023-02-08T13:29:44;99983.31;;;3.51;41.60
75627;BME280;67372;49.404;11.034;2023-02-08T13:32:17;99986.53;;;3.54;42.74
75627;BME280;67372;49.404;11.034;2023-02-08T13:34:49;99989.06;;;3.56;42.71
75627;BME280;67372;49.404;11.034;2023-02-08T13:37:23;99978.88;;;3.51;42.27
75627;BME280;67372;49.404;11.034;2023-02-08T13:40:07;99972.19;;;3.47;42.80
75627;BME280;67372;49.404;11.034;2023-02-08T13:42:48;99983.25;;;3.41;42.52
75627;BME280;67372;49.404;11.034;2023-02-08T13:45:34;99974.50;;;3.41;42.26
75627;BME280;67372;49.404;11.034;2023-02-08T13:48:07;99976.16;;;3.42;43.52
75627;BME280;67372;49.404;11.034;2023-02-08T13:53:01;99978.16;;;3.49;43.25
75627;BME280;67372;49.404;11.034;2023-02-08T13:58:24;99975.41;;;3.51;43.63
75627;BME280;67372;49.404;11.034;2023-02-08T14:03:25;99975.78;;;3.46;44.46
75627;BME280;67372;49.404;11.034;2023-02-08T14:05:55;99972.75;;;3.51;43.46
75627;BME280;67372;49.404;11.034;2023-02-08T14:16:25;99966.34;;;3.44;42.39
75627;BME280;67372;49.404;11.034;2023-02-08T14:18:55;99968.44;;;3.50;42.17
75627;BME280;67372;49.404;11.034;2023-02-08T14:21:36;99961.50;;;3.49;42.09
75627;BME280;67372;49.404;11.034;2023-02-08T14:24:07;99966.47;;;3.42;41.44
75627;BME280;67372;49.404;11.034;2023-02-08T14:26:43;99963.97;;;3.29;41.29
75627;BME280;67372;49.404;11.034;2023-02-08T14:29:20;99965.44;;;3.33;42.30
75627;BME280;67372;49.404;11.034;2023-02-08T14:31:48;99957.97;;;3.38;42.27
75627;BME280;67372;49.404;11.034;2023-02-08T14:34:38;99953.69;;;3.26;42.00
75627;BME280;67372;49.404;11.034;2023-02-08T14:39:43;99946.88;;;3.24;41.92
75627;BME280;67372;49.404;11.034;2023-02-08T14:42:10;99950.66;;;3.31;43.22
75627;BME280;67372;49.404;11.034;2023-02-08T14:47:59;99950.31;;;3.35;42.76
75627;BME280;67372;49.404;11.034;2023-02-08T14:50:18;99942.53;;;3.34;41.76
75627;BME280;67372;49.404;11.034;2023-02-08T14:53:15;99944.34;;;3.33;41.90
75627;BME280;67372;49.404;11.034;2023-02-08T14:55:46;99946.63;;;3.27;41.16
75627;BME280;67372;49.404;11.034;2023-02-08T14:58:25;99941.97;;;3.19;41.15
75627;BME280;67372;49.404;11.034;2023-02-08T15:00:55;99931.13;;;3.13;41.91
75627;BME280;67372;49.404;11.034;2023-02-08T15:03:23;99929.44;;;3.12;41.67